Mount Sherman, Arkansas
Current Conditions -  °F | °C
As of 7:12 AM on Tuesday 21 Oct 2014 (Local Time) from KHRO Reporting Station
Haze Haze  
Wind Chill: 52°   Ceiling: Unl
Heat Index: 52°   Visibility: 0.75mi
Dew Point: 52°   Wind: 5mph
Humidity: 100%   Direction: 270°W
Pressure: 30.11"   Gusts: NA
Location:  36.0047°N, 93.218°W
Report Text: KHRO 211212Z AUTO 27004KT 3/4SM BR CLR 11/11 A3011 RMK AO2 T01110111
Loading
Personal Weather Stations






























Interactive Weather Map
Tropical Storm Tracking
New forecast layout! Learn more

10-Day Weather Forecast

Advertisements
Track Severe Weather on mobile